sensor_id;sensor_type;location;lat;lon;timestamp;P1;durP1;ratioP1;P2;durP2;ratioP2
15968;SDS011;8085;53.472;9.794;2023-02-01T00:00:14;18.40;;;4.27;;
15968;SDS011;8085;53.472;9.794;2023-02-01T00:02:41;22.47;;;4.20;;
15968;SDS011;8085;53.472;9.794;2023-02-01T00:05:08;23.63;;;5.30;;
15968;SDS011;8085;53.472;9.794;2023-02-01T00:07:35;19.97;;;4.40;;
15968;SDS011;8085;53.472;9.794;2023-02-01T00:10:04;28.03;;;4.90;;
15968;SDS011;8085;53.472;9.794;2023-02-01T00:12:32;22.80;;;4.83;;
15968;SDS011;8085;53.472;9.794;2023-02-01T00:15:00;24.53;;;4.53;;
15968;SDS011;8085;53.472;9.794;2023-02-01T00:17:26;20.23;;;4.90;;
15968;SDS011;8085;53.472;9.794;2023-02-01T00:19:53;32.57;;;5.87;;
15968;SDS011;8085;53.472;9.794;2023-02-01T00:22:20;27.97;;;5.17;;
15968;SDS011;8085;53.472;9.794;2023-02-01T00:24:47;23.90;;;4.50;;
15968;SDS011;8085;53.472;9.794;2023-02-01T00:27:15;33.33;;;6.37;;
15968;SDS011;8085;53.472;9.794;2023-02-01T00:29:45;23.87;;;4.80;;
15968;SDS011;8085;53.472;9.794;2023-02-01T00:32:12;21.70;;;4.50;;
15968;SDS011;8085;53.472;9.794;2023-02-01T00:34:39;25.73;;;5.53;;
15968;SDS011;8085;53.472;9.794;2023-02-01T00:37:05;27.03;;;5.80;;
15968;SDS011;8085;53.472;9.794;2023-02-01T00:39:32;30.77;;;5.73;;
15968;SDS011;8085;53.472;9.794;2023-02-01T00:41:59;26.30;;;5.20;;
15968;SDS011;8085;53.472;9.794;2023-02-01T00:44:28;25.93;;;5.57;;
15968;SDS011;8085;53.472;9.794;2023-02-01T00:46:58;22.10;;;5.27;;
15968;SDS011;8085;53.472;9.794;2023-02-01T00:49:26;33.87;;;5.57;;
15968;SDS011;8085;53.472;9.794;2023-02-01T00:51:53;25.47;;;5.13;;
15968;SDS011;8085;53.472;9.794;2023-02-01T00:54:20;26.50;;;5.00;;
15968;SDS011;8085;53.472;9.794;2023-02-01T00:56:47;28.33;;;5.87;;
15968;SDS011;8085;53.472;9.794;2023-02-01T00:59:14;29.17;;;5.63;;
15968;SDS011;8085;53.472;9.794;2023-02-01T01:01:42;26.83;;;5.57;;
15968;SDS011;8085;53.472;9.794;2023-02-01T01:04:09;16.80;;;4.33;;
15968;SDS011;8085;53.472;9.794;2023-02-01T01:06:36;24.63;;;5.83;;
15968;SDS011;8085;53.472;9.794;2023-02-01T01:09:04;28.63;;;5.23;;
15968;SDS011;8085;53.472;9.794;2023-02-01T01:11:33;26.17;;;5.83;;
15968;SDS011;8085;53.472;9.794;2023-02-01T01:14:01;27.43;;;5.40;;
15968;SDS011;8085;53.472;9.794;2023-02-01T01:16:29;29.43;;;5.80;;
15968;SDS011;8085;53.472;9.794;2023-02-01T01:18:58;23.63;;;4.80;;
15968;SDS011;8085;53.472;9.794;2023-02-01T01:21:26;28.07;;;6.13;;
15968;SDS011;8085;53.472;9.794;2023-02-01T01:23:53;30.67;;;5.80;;
15968;SDS011;8085;53.472;9.794;2023-02-01T01:26:21;23.17;;;5.80;;
15968;SDS011;8085;53.472;9.794;2023-02-01T01:28:49;22.23;;;5.20;;
15968;SDS011;8085;53.472;9.794;2023-02-01T01:31:17;30.43;;;5.83;;
15968;SDS011;8085;53.472;9.794;2023-02-01T01:33:47;28.30;;;5.80;;
15968;SDS011;8085;53.472;9.794;2023-02-01T01:36:16;32.10;;;5.97;;
15968;SDS011;8085;53.472;9.794;2023-02-01T01:38:43;28.67;;;5.50;;
15968;SDS011;8085;53.472;9.794;2023-02-01T01:41:12;27.57;;;5.07;;
15968;SDS011;8085;53.472;9.794;2023-02-01T01:43:47;27.70;;;5.57;;
15968;SDS011;8085;53.472;9.794;2023-02-01T01:46:17;34.17;;;5.87;;
15968;SDS011;8085;53.472;9.794;2023-02-01T01:48:45;27.13;;;5.17;;
15968;SDS011;8085;53.472;9.794;2023-02-01T01:51:14;23.33;;;5.27;;
15968;SDS011;8085;53.472;9.794;2023-02-01T01:53:48;24.93;;;6.00;;
15968;SDS011;8085;53.472;9.794;2023-02-01T01:56:22;26.50;;;5.50;;
15968;SDS011;8085;53.472;9.794;2023-02-01T01:58:50;30.43;;;5.57;;
15968;SDS011;8085;53.472;9.794;2023-02-01T02:01:18;28.80;;;5.83;;
15968;SDS011;8085;53.472;9.794;2023-02-01T02:03:45;28.90;;;5.70;;
15968;SDS011;8085;53.472;9.794;2023-02-01T02:06:15;30.47;;;5.40;;
15968;SDS011;8085;53.472;9.794;2023-02-01T02:08:48;24.80;;;6.00;;
15968;SDS011;8085;53.472;9.794;2023-02-01T02:11:16;31.63;;;5.50;;
15968;SDS011;8085;53.472;9.794;2023-02-01T02:13:44;27.60;;;5.57;;
15968;SDS011;8085;53.472;9.794;2023-02-01T02:16:19;28.90;;;5.70;;
15968;SDS011;8085;53.472;9.794;2023-02-01T02:19:17;23.67;;;5.67;;
15968;SDS011;8085;53.472;9.794;2023-02-01T02:22:00;36.10;;;6.00;;
15968;SDS011;8085;53.472;9.794;2023-02-01T02:24:49;32.73;;;5.73;;
15968;SDS011;8085;53.472;9.794;2023-02-01T02:27:35;24.50;;;5.43;;
15968;SDS011;8085;53.472;9.794;2023-02-01T02:33:43;25.67;;;5.67;;
15968;SDS011;8085;53.472;9.794;2023-02-01T02:36:28;36.10;;;5.57;;
15968;SDS011;8085;53.472;9.794;2023-02-01T02:39:03;24.33;;;5.80;;
15968;SDS011;8085;53.472;9.794;2023-02-01T02:41:35;29.20;;;5.83;;
15968;SDS011;8085;53.472;9.794;2023-02-01T02:44:32;25.80;;;5.23;;
15968;SDS011;8085;53.472;9.794;2023-02-01T02:47:25;25.20;;;5.97;;
15968;SDS011;8085;53.472;9.794;2023-02-01T02:50:05;34.73;;;6.50;;
15968;SDS011;8085;53.472;9.794;2023-02-01T02:52:57;30.97;;;6.23;;
15968;SDS011;8085;53.472;9.794;2023-02-01T02:55:46;27.40;;;5.03;;
15968;SDS011;8085;53.472;9.794;2023-02-01T02:58:15;33.63;;;6.00;;
15968;SDS011;8085;53.472;9.794;2023-02-01T03:01:00;24.37;;;5.43;;
15968;SDS011;8085;53.472;9.794;2023-02-01T03:03:46;28.37;;;5.93;;
15968;SDS011;8085;53.472;9.794;2023-02-01T03:06:36;27.43;;;5.13;;
15968;SDS011;8085;53.472;9.794;2023-02-01T03:09:05;23.03;;;5.60;;
15968;SDS011;8085;53.472;9.794;2023-02-01T03:11:36;23.97;;;5.13;;
15968;SDS011;8085;53.472;9.794;2023-02-01T03:14:22;24.03;;;5.57;;
15968;SDS011;8085;53.472;9.794;2023-02-01T03:16:51;29.93;;;5.73;;
15968;SDS011;8085;53.472;9.794;2023-02-01T03:19:23;42.57;;;5.50;;
15968;SDS011;8085;53.472;9.794;2023-02-01T03:21:55;32.20;;;5.60;;
15968;SDS011;8085;53.472;9.794;2023-02-01T03:24:25;24.67;;;5.00;;
15968;SDS011;8085;53.472;9.794;2023-02-01T03:27:00;36.63;;;5.70;;
15968;SDS011;8085;53.472;9.794;2023-02-01T03:29:33;28.90;;;4.53;;
15968;SDS011;8085;53.472;9.794;2023-02-01T03:32:04;22.17;;;4.90;;
15968;SDS011;8085;53.472;9.794;2023-02-01T03:34:31;23.10;;;4.63;;
15968;SDS011;8085;53.472;9.794;2023-02-01T03:37:00;20.37;;;4.10;;
15968;SDS011;8085;53.472;9.794;2023-02-01T03:39:31;25.40;;;3.73;;
15968;SDS011;8085;53.472;9.794;2023-02-01T03:42:02;11.73;;;3.33;;
15968;SDS011;8085;53.472;9.794;2023-02-01T03:44:32;15.83;;;3.13;;
15968;SDS011;8085;53.472;9.794;2023-02-01T03:47:04;17.50;;;3.20;;
15968;SDS011;8085;53.472;9.794;2023-02-01T03:49:35;15.53;;;2.90;;
15968;SDS011;8085;53.472;9.794;2023-02-01T03:52:06;7.20;;;2.43;;
15968;SDS011;8085;53.472;9.794;2023-02-01T03:54:37;19.90;;;3.37;;
15968;SDS011;8085;53.472;9.794;2023-02-01T03:57:14;11.37;;;2.80;;
15968;SDS011;8085;53.472;9.794;2023-02-01T03:59:47;13.87;;;2.87;;
15968;SDS011;8085;53.472;9.794;2023-02-01T04:02:14;17.90;;;3.20;;
15968;SDS011;8085;53.472;9.794;2023-02-01T04:04:40;9.30;;;2.40;;
15968;SDS011;8085;53.472;9.794;2023-02-01T04:07:09;9.23;;;2.67;;
15968;SDS011;8085;53.472;9.794;2023-02-01T04:09:36;16.77;;;3.47;;
15968;SDS011;8085;53.472;9.794;2023-02-01T04:12:02;17.37;;;3.20;;
15968;SDS011;8085;53.472;9.794;2023-02-01T04:14:30;13.90;;;3.17;;
15968;SDS011;8085;53.472;9.794;2023-02-01T04:16:56;12.93;;;3.00;;
15968;SDS011;8085;53.472;9.794;2023-02-01T04:19:23;13.53;;;2.60;;
15968;SDS011;8085;53.472;9.794;2023-02-01T04:21:50;15.07;;;2.63;;
15968;SDS011;8085;53.472;9.794;2023-02-01T04:24:18;14.83;;;3.63;;
15968;SDS011;8085;53.472;9.794;2023-02-01T04:26:45;16.50;;;3.13;;
15968;SDS011;8085;53.472;9.794;2023-02-01T04:29:12;17.33;;;3.77;;
15968;SDS011;8085;53.472;9.794;2023-02-01T04:31:39;13.47;;;2.90;;
15968;SDS011;8085;53.472;9.794;2023-02-01T04:34:06;16.90;;;3.10;;
15968;SDS011;8085;53.472;9.794;2023-02-01T04:36:32;15.73;;;3.20;;
15968;SDS011;8085;53.472;9.794;2023-02-01T04:38:59;10.97;;;2.70;;
15968;SDS011;8085;53.472;9.794;2023-02-01T04:41:27;14.13;;;2.40;;
15968;SDS011;8085;53.472;9.794;2023-02-01T04:43:55;13.40;;;2.83;;
15968;SDS011;8085;53.472;9.794;2023-02-01T04:46:21;16.00;;;2.57;;
15968;SDS011;8085;53.472;9.794;2023-02-01T04:48:48;15.03;;;3.03;;
15968;SDS011;8085;53.472;9.794;2023-02-01T04:51:15;9.43;;;2.50;;
15968;SDS011;8085;53.472;9.794;2023-02-01T04:53:43;9.77;;;2.50;;
15968;SDS011;8085;53.472;9.794;2023-02-01T04:56:10;11.03;;;2.20;;
15968;SDS011;8085;53.472;9.794;2023-02-01T04:58:38;12.63;;;2.30;;
15968;SDS011;8085;53.472;9.794;2023-02-01T05:01:05;7.13;;;1.80;;
15968;SDS011;8085;53.472;9.794;2023-02-01T05:03:33;6.57;;;1.73;;
15968;SDS011;8085;53.472;9.794;2023-02-01T05:06:00;4.13;;;1.30;;
15968;SDS011;8085;53.472;9.794;2023-02-01T05:08:29;7.53;;;1.70;;
15968;SDS011;8085;53.472;9.794;2023-02-01T05:10:55;5.13;;;1.30;;
15968;SDS011;8085;53.472;9.794;2023-02-01T05:13:23;4.27;;;1.27;;
15968;SDS011;8085;53.472;9.794;2023-02-01T05:16:09;4.33;;;1.27;;
15968;SDS011;8085;53.472;9.794;2023-02-01T05:18:36;2.97;;;1.00;;
15968;SDS011;8085;53.472;9.794;2023-02-01T05:21:03;2.17;;;0.87;;
15968;SDS011;8085;53.472;9.794;2023-02-01T05:23:30;6.17;;;1.07;;
15968;SDS011;8085;53.472;9.794;2023-02-01T05:26:00;2.37;;;0.90;;
15968;SDS011;8085;53.472;9.794;2023-02-01T05:28:27;2.80;;;0.90;;
15968;SDS011;8085;53.472;9.794;2023-02-01T05:30:54;2.50;;;0.87;;
15968;SDS011;8085;53.472;9.794;2023-02-01T05:33:22;3.77;;;0.80;;
15968;SDS011;8085;53.472;9.794;2023-02-01T05:35:49;3.10;;;0.93;;
15968;SDS011;8085;53.472;9.794;2023-02-01T05:38:16;2.47;;;0.97;;
15968;SDS011;8085;53.472;9.794;2023-02-01T05:40:43;2.80;;;0.83;;
15968;SDS011;8085;53.472;9.794;2023-02-01T05:43:14;5.23;;;1.00;;
15968;SDS011;8085;53.472;9.794;2023-02-01T05:45:41;4.50;;;1.00;;
15968;SDS011;8085;53.472;9.794;2023-02-01T05:48:08;2.40;;;1.00;;
15968;SDS011;8085;53.472;9.794;2023-02-01T05:50:37;4.83;;;1.30;;
15968;SDS011;8085;53.472;9.794;2023-02-01T05:53:04;4.30;;;1.37;;
15968;SDS011;8085;53.472;9.794;2023-02-01T05:55:31;6.93;;;1.63;;
15968;SDS011;8085;53.472;9.794;2023-02-01T05:57:58;3.50;;;1.17;;
15968;SDS011;8085;53.472;9.794;2023-02-01T06:00:24;5.60;;;1.07;;
15968;SDS011;8085;53.472;9.794;2023-02-01T06:02:52;1.80;;;1.13;;
15968;SDS011;8085;53.472;9.794;2023-02-01T06:05:18;8.70;;;1.50;;
15968;SDS011;8085;53.472;9.794;2023-02-01T06:07:47;3.80;;;1.53;;
15968;SDS011;8085;53.472;9.794;2023-02-01T06:10:15;8.13;;;1.37;;
15968;SDS011;8085;53.472;9.794;2023-02-01T06:12:42;6.87;;;1.53;;
15968;SDS011;8085;53.472;9.794;2023-02-01T06:15:09;4.70;;;1.77;;
15968;SDS011;8085;53.472;9.794;2023-02-01T06:17:37;7.07;;;2.13;;
15968;SDS011;8085;53.472;9.794;2023-02-01T06:20:05;7.70;;;1.97;;
15968;SDS011;8085;53.472;9.794;2023-02-01T06:22:32;10.00;;;2.63;;
15968;SDS011;8085;53.472;9.794;2023-02-01T06:25:03;9.50;;;1.90;;
15968;SDS011;8085;53.472;9.794;2023-02-01T06:27:31;15.27;;;3.17;;
15968;SDS011;8085;53.472;9.794;2023-02-01T06:29:58;14.17;;;2.70;;
15968;SDS011;8085;53.472;9.794;2023-02-01T06:32:25;10.17;;;2.10;;
15968;SDS011;8085;53.472;9.794;2023-02-01T06:34:51;13.83;;;2.17;;
15968;SDS011;8085;53.472;9.794;2023-02-01T06:37:18;8.97;;;2.43;;
15968;SDS011;8085;53.472;9.794;2023-02-01T06:39:45;10.40;;;2.47;;
15968;SDS011;8085;53.472;9.794;2023-02-01T06:42:14;19.53;;;3.77;;
15968;SDS011;8085;53.472;9.794;2023-02-01T06:44:41;13.87;;;3.07;;
15968;SDS011;8085;53.472;9.794;2023-02-01T06:47:07;16.97;;;2.83;;
15968;SDS011;8085;53.472;9.794;2023-02-01T06:49:34;12.47;;;2.50;;
15968;SDS011;8085;53.472;9.794;2023-02-01T06:52:01;13.73;;;3.13;;
15968;SDS011;8085;53.472;9.794;2023-02-01T06:54:28;16.20;;;3.13;;
15968;SDS011;8085;53.472;9.794;2023-02-01T06:56:57;14.37;;;2.50;;
15968;SDS011;8085;53.472;9.794;2023-02-01T06:59:25;12.57;;;2.60;;
15968;SDS011;8085;53.472;9.794;2023-02-01T07:01:52;17.87;;;2.83;;
15968;SDS011;8085;53.472;9.794;2023-02-01T07:04:19;7.40;;;2.13;;
15968;SDS011;8085;53.472;9.794;2023-02-01T07:06:45;14.33;;;2.80;;
15968;SDS011;8085;53.472;9.794;2023-02-01T07:09:12;13.40;;;2.70;;
15968;SDS011;8085;53.472;9.794;2023-02-01T07:11:39;18.13;;;3.07;;
15968;SDS011;8085;53.472;9.794;2023-02-01T07:14:08;15.53;;;3.10;;
15968;SDS011;8085;53.472;9.794;2023-02-01T07:16:36;21.03;;;3.80;;
15968;SDS011;8085;53.472;9.794;2023-02-01T07:19:03;22.77;;;4.23;;
15968;SDS011;8085;53.472;9.794;2023-02-01T07:21:30;23.50;;;4.57;;
15968;SDS011;8085;53.472;9.794;2023-02-01T07:23:57;21.57;;;4.00;;
15968;SDS011;8085;53.472;9.794;2023-02-01T07:26:24;14.83;;;4.37;;
15968;SDS011;8085;53.472;9.794;2023-02-01T07:28:51;35.47;;;4.63;;
15968;SDS011;8085;53.472;9.794;2023-02-01T07:31:18;22.50;;;4.47;;
15968;SDS011;8085;53.472;9.794;2023-02-01T07:33:48;19.93;;;3.70;;
15968;SDS011;8085;53.472;9.794;2023-02-01T07:36:16;25.90;;;4.57;;
15968;SDS011;8085;53.472;9.794;2023-02-01T07:38:44;28.17;;;4.70;;
15968;SDS011;8085;53.472;9.794;2023-02-01T07:41:12;25.77;;;4.80;;
15968;SDS011;8085;53.472;9.794;2023-02-01T07:43:40;21.27;;;4.10;;
15968;SDS011;8085;53.472;9.794;2023-02-01T07:46:07;22.83;;;4.53;;
15968;SDS011;8085;53.472;9.794;2023-02-01T07:48:35;24.07;;;4.67;;
15968;SDS011;8085;53.472;9.794;2023-02-01T07:51:04;19.33;;;4.83;;
15968;SDS011;8085;53.472;9.794;2023-02-01T07:53:32;20.20;;;4.40;;
15968;SDS011;8085;53.472;9.794;2023-02-01T07:56:00;20.63;;;4.43;;
15968;SDS011;8085;53.472;9.794;2023-02-01T07:58:28;19.20;;;3.67;;
15968;SDS011;8085;53.472;9.794;2023-02-01T08:00:55;21.97;;;3.70;;
15968;SDS011;8085;53.472;9.794;2023-02-01T08:03:39;17.10;;;3.93;;
15968;SDS011;8085;53.472;9.794;2023-02-01T08:06:08;24.10;;;4.60;;
15968;SDS011;8085;53.472;9.794;2023-02-01T08:08:34;24.20;;;4.80;;
15968;SDS011;8085;53.472;9.794;2023-02-01T08:11:03;26.63;;;4.40;;
15968;SDS011;8085;53.472;9.794;2023-02-01T08:13:32;26.83;;;5.23;;
15968;SDS011;8085;53.472;9.794;2023-02-01T08:16:00;26.60;;;5.23;;
15968;SDS011;8085;53.472;9.794;2023-02-01T08:18:29;23.97;;;4.37;;
15968;SDS011;8085;53.472;9.794;2023-02-01T08:20:56;25.73;;;4.77;;
15968;SDS011;8085;53.472;9.794;2023-02-01T08:23:24;25.70;;;4.73;;
15968;SDS011;8085;53.472;9.794;2023-02-01T08:25:51;20.60;;;4.27;;
15968;SDS011;8085;53.472;9.794;2023-02-01T08:28:18;27.00;;;5.50;;
15968;SDS011;8085;53.472;9.794;2023-02-01T08:30:45;23.83;;;4.97;;
15968;SDS011;8085;53.472;9.794;2023-02-01T08:33:12;26.03;;;5.37;;
15968;SDS011;8085;53.472;9.794;2023-02-01T08:35:38;20.00;;;4.27;;
15968;SDS011;8085;53.472;9.794;2023-02-01T08:38:05;22.97;;;4.20;;
15968;SDS011;8085;53.472;9.794;2023-02-01T08:40:33;19.53;;;4.10;;
15968;SDS011;8085;53.472;9.794;2023-02-01T08:43:00;23.47;;;4.90;;
15968;SDS011;8085;53.472;9.794;2023-02-01T08:45:27;24.70;;;5.03;;
15968;SDS011;8085;53.472;9.794;2023-02-01T08:47:55;20.30;;;4.00;;
15968;SDS011;8085;53.472;9.794;2023-02-01T08:50:23;26.23;;;5.13;;
15968;SDS011;8085;53.472;9.794;2023-02-01T08:52:50;21.23;;;4.20;;
15968;SDS011;8085;53.472;9.794;2023-02-01T08:55:17;23.50;;;5.40;;
15968;SDS011;8085;53.472;9.794;2023-02-01T08:57:45;21.10;;;4.73;;
15968;SDS011;8085;53.472;9.794;2023-02-01T09:00:13;26.43;;;4.80;;
15968;SDS011;8085;53.472;9.794;2023-02-01T09:02:41;29.30;;;5.37;;
15968;SDS011;8085;53.472;9.794;2023-02-01T09:05:09;21.00;;;4.53;;
15968;SDS011;8085;53.472;9.794;2023-02-01T09:07:37;26.53;;;4.77;;
15968;SDS011;8085;53.472;9.794;2023-02-01T09:10:04;24.53;;;4.57;;
15968;SDS011;8085;53.472;9.794;2023-02-01T09:12:32;21.53;;;4.30;;
15968;SDS011;8085;53.472;9.794;2023-02-01T09:15:01;25.63;;;4.93;;
15968;SDS011;8085;53.472;9.794;2023-02-01T09:17:28;29.57;;;4.97;;
15968;SDS011;8085;53.472;9.794;2023-02-01T09:19:55;31.40;;;5.00;;
15968;SDS011;8085;53.472;9.794;2023-02-01T09:22:22;26.13;;;4.70;;
15968;SDS011;8085;53.472;9.794;2023-02-01T09:24:49;23.60;;;4.63;;
15968;SDS011;8085;53.472;9.794;2023-02-01T09:27:19;20.50;;;4.43;;
15968;SDS011;8085;53.472;9.794;2023-02-01T09:29:46;21.17;;;4.63;;
15968;SDS011;8085;53.472;9.794;2023-02-01T09:32:18;23.63;;;5.13;;
15968;SDS011;8085;53.472;9.794;2023-02-01T09:34:45;22.20;;;4.37;;
15968;SDS011;8085;53.472;9.794;2023-02-01T09:37:12;23.73;;;4.43;;
15968;SDS011;8085;53.472;9.794;2023-02-01T09:39:39;19.43;;;3.73;;
15968;SDS011;8085;53.472;9.794;2023-02-01T09:42:12;24.80;;;4.80;;
15968;SDS011;8085;53.472;9.794;2023-02-01T09:44:48;20.97;;;4.00;;
15968;SDS011;8085;53.472;9.794;2023-02-01T09:47:37;25.20;;;5.10;;
15968;SDS011;8085;53.472;9.794;2023-02-01T09:50:11;14.50;;;3.57;;
15968;SDS011;8085;53.472;9.794;2023-02-01T09:52:43;22.00;;;4.60;;
15968;SDS011;8085;53.472;9.794;2023-02-01T09:55:13;22.10;;;4.13;;
15968;SDS011;8085;53.472;9.794;2023-02-01T09:57:44;23.63;;;4.63;;
15968;SDS011;8085;53.472;9.794;2023-02-01T10:00:18;19.63;;;4.50;;
15968;SDS011;8085;53.472;9.794;2023-02-01T10:02:50;21.00;;;3.50;;
15968;SDS011;8085;53.472;9.794;2023-02-01T10:05:22;27.07;;;4.53;;
15968;SDS011;8085;53.472;9.794;2023-02-01T10:08:04;20.37;;;4.17;;
15968;SDS011;8085;53.472;9.794;2023-02-01T10:10:40;22.80;;;3.83;;
15968;SDS011;8085;53.472;9.794;2023-02-01T10:13:22;17.93;;;4.03;;
15968;SDS011;8085;53.472;9.794;2023-02-01T10:15:59;21.30;;;4.53;;
15968;SDS011;8085;53.472;9.794;2023-02-01T10:18:55;17.13;;;4.30;;
15968;SDS011;8085;53.472;9.794;2023-02-01T10:21:42;16.80;;;4.20;;
15968;SDS011;8085;53.472;9.794;2023-02-01T10:24:24;17.07;;;4.00;;
15968;SDS011;8085;53.472;9.794;2023-02-01T10:27:02;25.50;;;4.50;;
15968;SDS011;8085;53.472;9.794;2023-02-01T10:29:38;22.17;;;4.00;;
15968;SDS011;8085;53.472;9.794;2023-02-01T10:32:11;22.53;;;3.60;;
15968;SDS011;8085;53.472;9.794;2023-02-01T10:34:41;20.63;;;3.97;;
15968;SDS011;8085;53.472;9.794;2023-02-01T10:37:13;19.43;;;3.97;;
15968;SDS011;8085;53.472;9.794;2023-02-01T10:39:49;12.83;;;3.60;;
15968;SDS011;8085;53.472;9.794;2023-02-01T10:42:18;21.67;;;4.27;;
15968;SDS011;8085;53.472;9.794;2023-02-01T10:44:48;28.03;;;4.47;;
15968;SDS011;8085;53.472;9.794;2023-02-01T10:47:15;20.37;;;3.57;;
15968;SDS011;8085;53.472;9.794;2023-02-01T10:49:45;18.00;;;3.83;;
15968;SDS011;8085;53.472;9.794;2023-02-01T10:52:19;13.33;;;3.67;;
15968;SDS011;8085;53.472;9.794;2023-02-01T10:54:51;22.97;;;4.63;;
15968;SDS011;8085;53.472;9.794;2023-02-01T10:57:20;22.30;;;4.40;;
15968;SDS011;8085;53.472;9.794;2023-02-01T10:59:50;28.00;;;4.70;;
15968;SDS011;8085;53.472;9.794;2023-02-01T11:02:20;18.33;;;3.37;;
15968;SDS011;8085;53.472;9.794;2023-02-01T11:04:59;20.07;;;4.37;;
15968;SDS011;8085;53.472;9.794;2023-02-01T11:07:28;15.07;;;3.40;;
15968;SDS011;8085;53.472;9.794;2023-02-01T11:09:55;26.73;;;4.30;;
15968;SDS011;8085;53.472;9.794;2023-02-01T11:12:30;19.53;;;4.50;;
15968;SDS011;8085;53.472;9.794;2023-02-01T11:14:59;22.47;;;4.30;;
15968;SDS011;8085;53.472;9.794;2023-02-01T11:17:32;18.60;;;3.73;;
15968;SDS011;8085;53.472;9.794;2023-02-01T11:20:03;18.90;;;3.73;;
15968;SDS011;8085;53.472;9.794;2023-02-01T11:22:32;20.23;;;4.47;;
15968;SDS011;8085;53.472;9.794;2023-02-01T11:24:59;26.03;;;4.60;;
15968;SDS011;8085;53.472;9.794;2023-02-01T11:27:33;20.03;;;4.47;;
15968;SDS011;8085;53.472;9.794;2023-02-01T11:30:00;23.50;;;4.20;;
15968;SDS011;8085;53.472;9.794;2023-02-01T11:32:29;16.87;;;3.90;;
15968;SDS011;8085;53.472;9.794;2023-02-01T11:34:57;20.57;;;3.57;;
15968;SDS011;8085;53.472;9.794;2023-02-01T11:37:29;20.97;;;3.27;;
15968;SDS011;8085;53.472;9.794;2023-02-01T11:40:00;21.87;;;4.30;;
15968;SDS011;8085;53.472;9.794;2023-02-01T11:42:28;25.47;;;4.60;;
15968;SDS011;8085;53.472;9.794;2023-02-01T11:45:15;22.83;;;4.23;;
15968;SDS011;8085;53.472;9.794;2023-02-01T11:47:45;15.03;;;2.90;;
15968;SDS011;8085;53.472;9.794;2023-02-01T11:50:14;5.13;;;1.50;;
15968;SDS011;8085;53.472;9.794;2023-02-01T11:52:54;8.63;;;1.67;;
15968;SDS011;8085;53.472;9.794;2023-02-01T11:55:38;7.40;;;1.93;;
15968;SDS011;8085;53.472;9.794;2023-02-01T11:58:15;13.53;;;2.53;;
15968;SDS011;8085;53.472;9.794;2023-02-01T12:00:57;14.60;;;3.73;;
15968;SDS011;8085;53.472;9.794;2023-02-01T12:06:43;10.60;;;2.13;;
15968;SDS011;8085;53.472;9.794;2023-02-01T12:09:25;9.73;;;2.40;;
15968;SDS011;8085;53.472;9.794;2023-02-01T12:12:06;9.57;;;2.30;;
15968;SDS011;8085;53.472;9.794;2023-02-01T12:14:45;11.83;;;2.20;;
15968;SDS011;8085;53.472;9.794;2023-02-01T12:17:30;8.43;;;2.10;;
15968;SDS011;8085;53.472;9.794;2023-02-01T12:20:14;8.73;;;2.40;;
15968;SDS011;8085;53.472;9.794;2023-02-01T12:22:53;13.83;;;2.37;;
15968;SDS011;8085;53.472;9.794;2023-02-01T12:25:34;9.03;;;2.23;;
15968;SDS011;8085;53.472;9.794;2023-02-01T12:28:28;4.90;;;1.47;;
15968;SDS011;8085;53.472;9.794;2023-02-01T12:31:15;1.97;;;0.77;;
15968;SDS011;8085;53.472;9.794;2023-02-01T12:33:56;2.57;;;0.80;;
15968;SDS011;8085;53.472;9.794;2023-02-01T12:36:40;3.87;;;1.00;;
15968;SDS011;8085;53.472;9.794;2023-02-01T12:39:16;1.13;;;0.73;;
15968;SDS011;8085;53.472;9.794;2023-02-01T12:41:55;6.03;;;0.97;;
15968;SDS011;8085;53.472;9.794;2023-02-01T12:44:32;2.93;;;0.80;;
15968;SDS011;8085;53.472;9.794;2023-02-01T12:47:06;1.17;;;0.50;;
15968;SDS011;8085;53.472;9.794;2023-02-01T12:49:44;2.47;;;0.80;;
15968;SDS011;8085;53.472;9.794;2023-02-01T12:52:16;3.40;;;0.67;;
15968;SDS011;8085;53.472;9.794;2023-02-01T12:54:48;1.97;;;0.70;;
15968;SDS011;8085;53.472;9.794;2023-02-01T12:57:23;3.40;;;0.80;;
15968;SDS011;8085;53.472;9.794;2023-02-01T12:59:55;1.37;;;0.67;;
15968;SDS011;8085;53.472;9.794;2023-02-01T13:02:28;2.57;;;0.70;;
15968;SDS011;8085;53.472;9.794;2023-02-01T13:05:03;1.97;;;0.80;;
15968;SDS011;8085;53.472;9.794;2023-02-01T13:07:39;1.67;;;0.70;;
15968;SDS011;8085;53.472;9.794;2023-02-01T13:10:12;2.20;;;0.50;;
15968;SDS011;8085;53.472;9.794;2023-02-01T13:12:44;1.07;;;0.60;;
15968;SDS011;8085;53.472;9.794;2023-02-01T13:15:19;1.83;;;0.60;;
15968;SDS011;8085;53.472;9.794;2023-02-01T13:17:51;4.10;;;0.93;;
15968;SDS011;8085;53.472;9.794;2023-02-01T13:20:21;1.13;;;0.70;;
15968;SDS011;8085;53.472;9.794;2023-02-01T13:22:51;1.13;;;0.77;;
15968;SDS011;8085;53.472;9.794;2023-02-01T13:25:26;0.50;;;0.40;;
15968;SDS011;8085;53.472;9.794;2023-02-01T13:28:00;0.67;;;0.50;;
15968;SDS011;8085;53.472;9.794;2023-02-01T13:30:34;1.27;;;0.60;;
15968;SDS011;8085;53.472;9.794;2023-02-01T13:33:15;2.07;;;0.40;;
15968;SDS011;8085;53.472;9.794;2023-02-01T13:39:11;1.47;;;0.60;;
15968;SDS011;8085;53.472;9.794;2023-02-01T13:42:11;2.23;;;0.70;;
15968;SDS011;8085;53.472;9.794;2023-02-01T13:44:44;0.93;;;0.57;;
15968;SDS011;8085;53.472;9.794;2023-02-01T13:47:18;3.43;;;0.90;;
15968;SDS011;8085;53.472;9.794;2023-02-01T13:49:52;2.53;;;0.60;;
15968;SDS011;8085;53.472;9.794;2023-02-01T13:52:25;2.60;;;0.50;;
15968;SDS011;8085;53.472;9.794;2023-02-01T13:55:14;3.50;;;0.90;;
15968;SDS011;8085;53.472;9.794;2023-02-01T13:57:51;5.70;;;0.90;;
15968;SDS011;8085;53.472;9.794;2023-02-01T14:00:28;3.40;;;0.60;;
15968;SDS011;8085;53.472;9.794;2023-02-01T14:08:46;7.50;;;1.27;;
15968;SDS011;8085;53.472;9.794;2023-02-01T14:11:33;4.07;;;1.10;;
15968;SDS011;8085;53.472;9.794;2023-02-01T14:14:06;4.97;;;1.10;;
15968;SDS011;8085;53.472;9.794;2023-02-01T14:23:13;9.60;;;1.60;;
15968;SDS011;8085;53.472;9.794;2023-02-01T14:25:43;5.83;;;1.27;;
15968;SDS011;8085;53.472;9.794;2023-02-01T14:28:12;5.80;;;1.60;;
15968;SDS011;8085;53.472;9.794;2023-02-01T14:30:48;10.63;;;1.80;;
15968;SDS011;8085;53.472;9.794;2023-02-01T14:33:18;7.50;;;1.50;;
15968;SDS011;8085;53.472;9.794;2023-02-01T14:35:55;8.23;;;1.77;;
15968;SDS011;8085;53.472;9.794;2023-02-01T14:38:29;3.43;;;1.00;;
15968;SDS011;8085;53.472;9.794;2023-02-01T14:41:10;4.67;;;1.30;;
15968;SDS011;8085;53.472;9.794;2023-02-01T14:43:48;5.17;;;1.00;;
15968;SDS011;8085;53.472;9.794;2023-02-01T14:46:16;10.73;;;1.70;;
15968;SDS011;8085;53.472;9.794;2023-02-01T14:48:44;6.10;;;1.43;;
15968;SDS011;8085;53.472;9.794;2023-02-01T14:51:13;10.50;;;1.80;;
15968;SDS011;8085;53.472;9.794;2023-02-01T14:53:44;15.07;;;2.17;;
15968;SDS011;8085;53.472;9.794;2023-02-01T14:56:12;8.87;;;2.03;;
15968;SDS011;8085;53.472;9.794;2023-02-01T14:58:47;10.03;;;2.20;;
15968;SDS011;8085;53.472;9.794;2023-02-01T15:01:20;13.30;;;1.73;;
15968;SDS011;8085;53.472;9.794;2023-02-01T15:03:53;7.23;;;1.53;;
15968;SDS011;8085;53.472;9.794;2023-02-01T15:06:26;6.20;;;1.70;;
15968;SDS011;8085;53.472;9.794;2023-02-01T15:09:03;11.23;;;1.67;;
15968;SDS011;8085;53.472;9.794;2023-02-01T15:11:56;11.47;;;2.20;;
15968;SDS011;8085;53.472;9.794;2023-02-01T15:14:25;8.83;;;1.93;;
15968;SDS011;8085;53.472;9.794;2023-02-01T15:16:53;8.10;;;2.47;;
15968;SDS011;8085;53.472;9.794;2023-02-01T15:19:21;11.20;;;1.90;;
15968;SDS011;8085;53.472;9.794;2023-02-01T15:21:49;8.07;;;1.60;;
15968;SDS011;8085;53.472;9.794;2023-02-01T15:24:23;7.93;;;1.93;;
15968;SDS011;8085;53.472;9.794;2023-02-01T15:26:51;11.53;;;2.07;;
15968;SDS011;8085;53.472;9.794;2023-02-01T15:29:19;7.20;;;1.83;;
15968;SDS011;8085;53.472;9.794;2023-02-01T15:31:48;10.13;;;2.17;;
15968;SDS011;8085;53.472;9.794;2023-02-01T15:34:16;17.60;;;2.43;;
15968;SDS011;8085;53.472;9.794;2023-02-01T15:36:44;19.47;;;2.90;;